sensor_id;sensor_type;location;lat;lon;timestamp;P1;durP1;ratioP1;P2;durP2;ratioP2
12474;SDS011;6302;42.624;23.334;2022-10-03T00:01:46;2.87;;;1.77;;
12474;SDS011;6302;42.624;23.334;2022-10-03T00:07:14;1.80;;;1.70;;
12474;SDS011;6302;42.624;23.334;2022-10-03T00:09:58;2.80;;;1.70;;
12474;SDS011;6302;42.624;23.334;2022-10-03T00:12:38;1.80;;;1.50;;
12474;SDS011;6302;42.624;23.334;2022-10-03T00:15:15;2.00;;;1.70;;
12474;SDS011;6302;42.624;23.334;2022-10-03T00:17:49;1.50;;;1.40;;
12474;SDS011;6302;42.624;23.334;2022-10-03T00:23:15;3.27;;;1.60;;
12474;SDS011;6302;42.624;23.334;2022-10-03T00:25:48;2.17;;;1.50;;
12474;SDS011;6302;42.624;23.334;2022-10-03T00:28:49;2.23;;;1.60;;
12474;SDS011;6302;42.624;23.334;2022-10-03T00:31:23;2.40;;;1.87;;
12474;SDS011;6302;42.624;23.334;2022-10-03T00:34:02;2.03;;;1.47;;
12474;SDS011;6302;42.624;23.334;2022-10-03T00:36:40;1.73;;;1.63;;
12474;SDS011;6302;42.624;23.334;2022-10-03T00:39:29;3.43;;;1.77;;
12474;SDS011;6302;42.624;23.334;2022-10-03T00:42:11;1.50;;;1.40;;
12474;SDS011;6302;42.624;23.334;2022-10-03T00:45:14;2.03;;;1.60;;
12474;SDS011;6302;42.624;23.334;2022-10-03T00:48:12;1.57;;;1.47;;
12474;SDS011;6302;42.624;23.334;2022-10-03T00:51:19;1.73;;;1.63;;
12474;SDS011;6302;42.624;23.334;2022-10-03T00:54:03;2.53;;;1.60;;
12474;SDS011;6302;42.624;23.334;2022-10-03T00:56:56;1.70;;;1.60;;
12474;SDS011;6302;42.624;23.334;2022-10-03T00:59:37;1.83;;;1.40;;
12474;SDS011;6302;42.624;23.334;2022-10-03T01:02:28;1.60;;;1.50;;
12474;SDS011;6302;42.624;23.334;2022-10-03T01:05:09;1.60;;;1.50;;
12474;SDS011;6302;42.624;23.334;2022-10-03T01:07:57;1.57;;;1.47;;
12474;SDS011;6302;42.624;23.334;2022-10-03T01:10:39;2.50;;;1.70;;
12474;SDS011;6302;42.624;23.334;2022-10-03T01:13:17;2.77;;;2.23;;
12474;SDS011;6302;42.624;23.334;2022-10-03T01:15:54;1.63;;;1.53;;
12474;SDS011;6302;42.624;23.334;2022-10-03T01:18:33;2.07;;;1.87;;
12474;SDS011;6302;42.624;23.334;2022-10-03T01:21:11;1.90;;;1.80;;
12474;SDS011;6302;42.624;23.334;2022-10-03T01:24:01;2.23;;;1.77;;
12474;SDS011;6302;42.624;23.334;2022-10-03T01:26:50;4.17;;;1.80;;
12474;SDS011;6302;42.624;23.334;2022-10-03T01:29:22;3.60;;;1.83;;
12474;SDS011;6302;42.624;23.334;2022-10-03T01:32:12;3.20;;;1.90;;
12474;SDS011;6302;42.624;23.334;2022-10-03T01:34:44;1.73;;;1.63;;
12474;SDS011;6302;42.624;23.334;2022-10-03T01:37:18;2.10;;;1.70;;
12474;SDS011;6302;42.624;23.334;2022-10-03T01:39:54;2.90;;;1.70;;
12474;SDS011;6302;42.624;23.334;2022-10-03T01:42:32;1.70;;;1.60;;
12474;SDS011;6302;42.624;23.334;2022-10-03T01:45:12;1.93;;;1.77;;
12474;SDS011;6302;42.624;23.334;2022-10-03T01:47:52;2.00;;;1.80;;
12474;SDS011;6302;42.624;23.334;2022-10-03T01:50:27;1.73;;;1.60;;
12474;SDS011;6302;42.624;23.334;2022-10-03T01:53:02;4.60;;;1.80;;
12474;SDS011;6302;42.624;23.334;2022-10-03T01:55:36;1.87;;;1.77;;
12474;SDS011;6302;42.624;23.334;2022-10-03T01:58:11;1.60;;;1.50;;
12474;SDS011;6302;42.624;23.334;2022-10-03T02:00:51;4.00;;;1.40;;
12474;SDS011;6302;42.624;23.334;2022-10-03T02:03:25;1.97;;;1.63;;
12474;SDS011;6302;42.624;23.334;2022-10-03T02:05:59;2.67;;;1.70;;
12474;SDS011;6302;42.624;23.334;2022-10-03T02:08:36;1.70;;;1.60;;
12474;SDS011;6302;42.624;23.334;2022-10-03T02:11:20;1.70;;;1.60;;
12474;SDS011;6302;42.624;23.334;2022-10-03T02:13:54;1.93;;;1.73;;
12474;SDS011;6302;42.624;23.334;2022-10-03T02:16:34;2.00;;;1.80;;
12474;SDS011;6302;42.624;23.334;2022-10-03T02:19:10;3.53;;;1.50;;
12474;SDS011;6302;42.624;23.334;2022-10-03T02:21:46;2.43;;;1.53;;
12474;SDS011;6302;42.624;23.334;2022-10-03T02:24:21;1.70;;;1.60;;
12474;SDS011;6302;42.624;23.334;2022-10-03T02:27:11;3.10;;;1.37;;
12474;SDS011;6302;42.624;23.334;2022-10-03T02:30:03;2.10;;;1.40;;
12474;SDS011;6302;42.624;23.334;2022-10-03T02:36:00;5.23;;;1.33;;
12474;SDS011;6302;42.624;23.334;2022-10-03T02:45:03;1.70;;;1.60;;
12474;SDS011;6302;42.624;23.334;2022-10-03T02:47:55;2.30;;;1.40;;
12474;SDS011;6302;42.624;23.334;2022-10-03T02:50:41;2.23;;;1.50;;
12474;SDS011;6302;42.624;23.334;2022-10-03T02:56:36;1.70;;;1.60;;
12474;SDS011;6302;42.624;23.334;2022-10-03T03:02:33;2.60;;;1.70;;
12474;SDS011;6302;42.624;23.334;2022-10-03T03:11:31;3.30;;;2.33;;
12474;SDS011;6302;42.624;23.334;2022-10-03T03:14:24;3.13;;;2.17;;
12474;SDS011;6302;42.624;23.334;2022-10-03T03:17:23;2.37;;;2.17;;
12474;SDS011;6302;42.624;23.334;2022-10-03T03:20:04;2.50;;;2.30;;
12474;SDS011;6302;42.624;23.334;2022-10-03T03:22:54;3.13;;;2.27;;
12474;SDS011;6302;42.624;23.334;2022-10-03T03:28:31;4.30;;;2.47;;
12474;SDS011;6302;42.624;23.334;2022-10-03T03:31:08;3.23;;;2.47;;
12474;SDS011;6302;42.624;23.334;2022-10-03T03:33:39;3.40;;;2.50;;
12474;SDS011;6302;42.624;23.334;2022-10-03T03:36:18;5.57;;;3.67;;
12474;SDS011;6302;42.624;23.334;2022-10-03T03:38:55;3.87;;;3.10;;
12474;SDS011;6302;42.624;23.334;2022-10-03T03:41:31;5.93;;;3.00;;
12474;SDS011;6302;42.624;23.334;2022-10-03T03:44:22;5.00;;;2.77;;
12474;SDS011;6302;42.624;23.334;2022-10-03T03:47:08;5.37;;;3.20;;
12474;SDS011;6302;42.624;23.334;2022-10-03T03:49:50;4.37;;;3.30;;
12474;SDS011;6302;42.624;23.334;2022-10-03T03:52:42;5.57;;;3.40;;
12474;SDS011;6302;42.624;23.334;2022-10-03T03:55:25;7.57;;;3.70;;
12474;SDS011;6302;42.624;23.334;2022-10-03T03:58:08;6.37;;;3.80;;
12474;SDS011;6302;42.624;23.334;2022-10-03T04:00:55;7.97;;;3.40;;
12474;SDS011;6302;42.624;23.334;2022-10-03T04:03:43;5.17;;;3.00;;
12474;SDS011;6302;42.624;23.334;2022-10-03T04:09:28;3.50;;;2.33;;
12474;SDS011;6302;42.624;23.334;2022-10-03T04:12:08;3.10;;;2.67;;
12474;SDS011;6302;42.624;23.334;2022-10-03T04:14:59;2.40;;;2.20;;
12474;SDS011;6302;42.624;23.334;2022-10-03T04:17:39;2.43;;;2.23;;
12474;SDS011;6302;42.624;23.334;2022-10-03T04:23:35;4.60;;;2.17;;
12474;SDS011;6302;42.624;23.334;2022-10-03T04:26:26;3.27;;;2.43;;
12474;SDS011;6302;42.624;23.334;2022-10-03T04:29:16;2.60;;;2.17;;
12474;SDS011;6302;42.624;23.334;2022-10-03T04:32:06;2.37;;;2.17;;
12474;SDS011;6302;42.624;23.334;2022-10-03T04:34:48;3.07;;;2.43;;
12474;SDS011;6302;42.624;23.334;2022-10-03T04:37:25;2.93;;;2.63;;
12474;SDS011;6302;42.624;23.334;2022-10-03T04:40:10;3.83;;;2.53;;
12474;SDS011;6302;42.624;23.334;2022-10-03T04:42:51;4.60;;;2.93;;
12474;SDS011;6302;42.624;23.334;2022-10-03T04:45:35;4.53;;;2.90;;
12474;SDS011;6302;42.624;23.334;2022-10-03T04:48:10;4.07;;;2.90;;
12474;SDS011;6302;42.624;23.334;2022-10-03T04:50:46;3.33;;;2.97;;
12474;SDS011;6302;42.624;23.334;2022-10-03T04:53:25;3.70;;;2.80;;
12474;SDS011;6302;42.624;23.334;2022-10-03T04:56:10;3.10;;;2.80;;
12474;SDS011;6302;42.624;23.334;2022-10-03T04:58:48;6.10;;;3.07;;
12474;SDS011;6302;42.624;23.334;2022-10-03T05:01:22;3.70;;;3.40;;
12474;SDS011;6302;42.624;23.334;2022-10-03T05:03:58;5.10;;;3.87;;
12474;SDS011;6302;42.624;23.334;2022-10-03T05:06:36;6.93;;;3.50;;
12474;SDS011;6302;42.624;23.334;2022-10-03T05:09:16;7.63;;;3.90;;
12474;SDS011;6302;42.624;23.334;2022-10-03T05:11:56;3.77;;;3.43;;
12474;SDS011;6302;42.624;23.334;2022-10-03T05:14:32;5.40;;;3.20;;
12474;SDS011;6302;42.624;23.334;2022-10-03T05:17:15;3.40;;;3.10;;
12474;SDS011;6302;42.624;23.334;2022-10-03T05:20:02;3.80;;;3.23;;
12474;SDS011;6302;42.624;23.334;2022-10-03T05:22:49;3.00;;;2.80;;
12474;SDS011;6302;42.624;23.334;2022-10-03T05:25:26;4.17;;;2.90;;
12474;SDS011;6302;42.624;23.334;2022-10-03T05:28:05;3.90;;;3.07;;
12474;SDS011;6302;42.624;23.334;2022-10-03T05:30:43;6.37;;;3.20;;
12474;SDS011;6302;42.624;23.334;2022-10-03T05:33:20;5.40;;;4.70;;
12474;SDS011;6302;42.624;23.334;2022-10-03T05:36:01;7.77;;;5.47;;
12474;SDS011;6302;42.624;23.334;2022-10-03T05:41:28;7.47;;;6.40;;
12474;SDS011;6302;42.624;23.334;2022-10-03T05:44:03;7.63;;;6.73;;
12474;SDS011;6302;42.624;23.334;2022-10-03T05:46:38;6.27;;;5.33;;
12474;SDS011;6302;42.624;23.334;2022-10-03T05:49:17;5.87;;;4.80;;
12474;SDS011;6302;42.624;23.334;2022-10-03T05:55:19;6.43;;;3.07;;
12474;SDS011;6302;42.624;23.334;2022-10-03T06:01:12;7.27;;;3.27;;
12474;SDS011;6302;42.624;23.334;2022-10-03T06:03:58;4.53;;;2.87;;
12474;SDS011;6302;42.624;23.334;2022-10-03T06:06:47;3.90;;;3.50;;
12474;SDS011;6302;42.624;23.334;2022-10-03T06:09:34;5.90;;;4.03;;
12474;SDS011;6302;42.624;23.334;2022-10-03T06:12:17;8.73;;;4.47;;
12474;SDS011;6302;42.624;23.334;2022-10-03T06:14:55;5.63;;;3.83;;
12474;SDS011;6302;42.624;23.334;2022-10-03T06:17:41;8.70;;;4.63;;
12474;SDS011;6302;42.624;23.334;2022-10-03T06:20:27;6.80;;;4.37;;
12474;SDS011;6302;42.624;23.334;2022-10-03T06:29:38;4.53;;;4.13;;
12474;SDS011;6302;42.624;23.334;2022-10-03T06:32:26;4.73;;;3.90;;
12474;SDS011;6302;42.624;23.334;2022-10-03T06:44:36;7.03;;;4.50;;
12474;SDS011;6302;42.624;23.334;2022-10-03T06:47:32;6.97;;;4.50;;
12474;SDS011;6302;42.624;23.334;2022-10-03T06:50:24;4.67;;;4.07;;
12474;SDS011;6302;42.624;23.334;2022-10-03T06:53:03;3.87;;;3.53;;
12474;SDS011;6302;42.624;23.334;2022-10-03T06:55:46;5.90;;;3.90;;
12474;SDS011;6302;42.624;23.334;2022-10-03T06:58:36;7.63;;;4.00;;
12474;SDS011;6302;42.624;23.334;2022-10-03T07:10:25;10.07;;;4.87;;
12474;SDS011;6302;42.624;23.334;2022-10-03T07:13:10;8.30;;;5.77;;
12474;SDS011;6302;42.624;23.334;2022-10-03T07:16:15;8.13;;;5.10;;
12474;SDS011;6302;42.624;23.334;2022-10-03T07:31:26;6.07;;;5.10;;
12474;SDS011;6302;42.624;23.334;2022-10-03T07:37:12;7.47;;;5.67;;
12474;SDS011;6302;42.624;23.334;2022-10-03T07:49:41;10.50;;;6.90;;
12474;SDS011;6302;42.624;23.334;2022-10-03T07:52:35;8.43;;;6.67;;
12474;SDS011;6302;42.624;23.334;2022-10-03T07:55:26;13.50;;;7.60;;
12474;SDS011;6302;42.624;23.334;2022-10-03T08:07:22;10.13;;;7.90;;
12474;SDS011;6302;42.624;23.334;2022-10-03T08:10:17;14.47;;;9.30;;
12474;SDS011;6302;42.624;23.334;2022-10-03T08:13:13;12.27;;;8.33;;
12474;SDS011;6302;42.624;23.334;2022-10-03T08:16:03;12.27;;;8.13;;
12474;SDS011;6302;42.624;23.334;2022-10-03T08:18:51;15.57;;;11.87;;
12474;SDS011;6302;42.624;23.334;2022-10-03T08:21:32;13.97;;;9.97;;
12474;SDS011;6302;42.624;23.334;2022-10-03T08:24:19;11.00;;;9.30;;
12474;SDS011;6302;42.624;23.334;2022-10-03T08:27:01;8.37;;;7.37;;
12474;SDS011;6302;42.624;23.334;2022-10-03T08:32:34;8.30;;;7.13;;
12474;SDS011;6302;42.624;23.334;2022-10-03T08:35:19;9.00;;;6.53;;
12474;SDS011;6302;42.624;23.334;2022-10-03T08:41:15;8.03;;;6.33;;
12474;SDS011;6302;42.624;23.334;2022-10-03T08:44:18;7.07;;;6.30;;
12474;SDS011;6302;42.624;23.334;2022-10-03T08:50:00;8.67;;;5.80;;
12474;SDS011;6302;42.624;23.334;2022-10-03T08:52:44;8.07;;;6.03;;
12474;SDS011;6302;42.624;23.334;2022-10-03T08:55:40;6.80;;;5.90;;
12474;SDS011;6302;42.624;23.334;2022-10-03T08:58:21;9.23;;;4.90;;
12474;SDS011;6302;42.624;23.334;2022-10-03T09:01:10;4.23;;;3.60;;
12474;SDS011;6302;42.624;23.334;2022-10-03T09:06:57;2.60;;;2.40;;
12474;SDS011;6302;42.624;23.334;2022-10-03T09:09:58;2.57;;;2.37;;
12474;SDS011;6302;42.624;23.334;2022-10-03T09:15:58;2.90;;;2.70;;
12474;SDS011;6302;42.624;23.334;2022-10-03T09:21:43;2.53;;;2.33;;
12474;SDS011;6302;42.624;23.334;2022-10-03T09:24:31;2.53;;;2.00;;
12474;SDS011;6302;42.624;23.334;2022-10-03T09:27:37;2.53;;;2.20;;
12474;SDS011;6302;42.624;23.334;2022-10-03T09:30:17;2.40;;;2.20;;
12474;SDS011;6302;42.624;23.334;2022-10-03T09:36:03;2.73;;;2.53;;
12474;SDS011;6302;42.624;23.334;2022-10-03T09:39:00;5.53;;;2.50;;
12474;SDS011;6302;42.624;23.334;2022-10-03T09:41:50;2.47;;;2.27;;
12474;SDS011;6302;42.624;23.334;2022-10-03T09:44:44;3.63;;;2.47;;
12474;SDS011;6302;42.624;23.334;2022-10-03T09:47:49;2.60;;;2.40;;
12474;SDS011;6302;42.624;23.334;2022-10-03T09:54:15;2.30;;;2.10;;
12474;SDS011;6302;42.624;23.334;2022-10-03T09:57:26;2.40;;;2.20;;
12474;SDS011;6302;42.624;23.334;2022-10-03T10:00:14;2.53;;;2.33;;
12474;SDS011;6302;42.624;23.334;2022-10-03T10:06:10;2.40;;;2.20;;
12474;SDS011;6302;42.624;23.334;2022-10-03T10:12:16;2.77;;;2.43;;
12474;SDS011;6302;42.624;23.334;2022-10-03T10:24:32;2.97;;;2.77;;
12474;SDS011;6302;42.624;23.334;2022-10-03T10:30:46;2.00;;;1.90;;
12474;SDS011;6302;42.624;23.334;2022-10-03T10:36:56;2.30;;;2.20;;
12474;SDS011;6302;42.624;23.334;2022-10-03T10:40:01;1.90;;;1.80;;
12474;SDS011;6302;42.624;23.334;2022-10-03T10:42:55;2.17;;;1.97;;
12474;SDS011;6302;42.624;23.334;2022-10-03T10:45:57;2.77;;;1.87;;
12474;SDS011;6302;42.624;23.334;2022-10-03T10:55:24;1.67;;;1.57;;
12474;SDS011;6302;42.624;23.334;2022-10-03T11:01:30;2.23;;;1.27;;
12474;SDS011;6302;42.624;23.334;2022-10-03T11:04:33;1.10;;;1.10;;
12474;SDS011;6302;42.624;23.334;2022-10-03T11:07:31;1.40;;;1.30;;
12474;SDS011;6302;42.624;23.334;2022-10-03T11:10:33;1.10;;;1.10;;
12474;SDS011;6302;42.624;23.334;2022-10-03T11:13:20;1.60;;;1.50;;
12474;SDS011;6302;42.624;23.334;2022-10-03T11:19:34;1.30;;;1.30;;
12474;SDS011;6302;42.624;23.334;2022-10-03T11:25:54;1.60;;;1.50;;
12474;SDS011;6302;42.624;23.334;2022-10-03T11:29:08;1.77;;;1.67;;
12474;SDS011;6302;42.624;23.334;2022-10-03T11:35:02;1.87;;;1.77;;
12474;SDS011;6302;42.624;23.334;2022-10-03T11:38:02;3.20;;;1.93;;
12474;SDS011;6302;42.624;23.334;2022-10-03T11:40:41;2.10;;;2.00;;
12474;SDS011;6302;42.624;23.334;2022-10-03T11:46:19;2.53;;;2.33;;
12474;SDS011;6302;42.624;23.334;2022-10-03T11:48:52;2.80;;;2.60;;
12474;SDS011;6302;42.624;23.334;2022-10-03T11:51:28;2.87;;;2.57;;
12474;SDS011;6302;42.624;23.334;2022-10-03T11:54:06;3.97;;;2.80;;
12474;SDS011;6302;42.624;23.334;2022-10-03T11:56:44;3.40;;;3.10;;
12474;SDS011;6302;42.624;23.334;2022-10-03T12:02:12;2.60;;;2.40;;
12474;SDS011;6302;42.624;23.334;2022-10-03T12:04:49;3.67;;;2.73;;
12474;SDS011;6302;42.624;23.334;2022-10-03T12:07:33;3.07;;;2.83;;
12474;SDS011;6302;42.624;23.334;2022-10-03T12:10:30;3.53;;;3.00;;
12474;SDS011;6302;42.624;23.334;2022-10-03T12:13:04;3.23;;;2.93;;
12474;SDS011;6302;42.624;23.334;2022-10-03T12:15:41;3.63;;;3.33;;
12474;SDS011;6302;42.624;23.334;2022-10-03T12:18:13;3.10;;;2.90;;
12474;SDS011;6302;42.624;23.334;2022-10-03T12:26:29;3.63;;;3.33;;
12474;SDS011;6302;42.624;23.334;2022-10-03T12:29:08;3.53;;;3.23;;
12474;SDS011;6302;42.624;23.334;2022-10-03T12:31:40;3.40;;;3.20;;
12474;SDS011;6302;42.624;23.334;2022-10-03T12:34:19;3.60;;;3.30;;
12474;SDS011;6302;42.624;23.334;2022-10-03T12:37:03;3.80;;;3.50;;
12474;SDS011;6302;42.624;23.334;2022-10-03T12:39:53;3.70;;;3.40;;
12474;SDS011;6302;42.624;23.334;2022-10-03T12:42:30;3.70;;;3.40;;
12474;SDS011;6302;42.624;23.334;2022-10-03T12:45:03;3.33;;;3.03;;
12474;SDS011;6302;42.624;23.334;2022-10-03T12:47:45;2.80;;;2.60;;
12474;SDS011;6302;42.624;23.334;2022-10-03T12:50:37;3.50;;;3.23;;
12474;SDS011;6302;42.624;23.334;2022-10-03T12:56:13;3.90;;;3.60;;
12474;SDS011;6302;42.624;23.334;2022-10-03T12:58:48;3.40;;;3.20;;
12474;SDS011;6302;42.624;23.334;2022-10-03T13:01:26;15.67;;;11.47;;
12474;SDS011;6302;42.624;23.334;2022-10-03T13:04:02;4.17;;;3.87;;
12474;SDS011;6302;42.624;23.334;2022-10-03T13:06:40;3.97;;;3.67;;
12474;SDS011;6302;42.624;23.334;2022-10-03T13:09:15;4.30;;;4.00;;
12474;SDS011;6302;42.624;23.334;2022-10-03T13:11:57;5.10;;;3.67;;
12474;SDS011;6302;42.624;23.334;2022-10-03T13:14:34;4.10;;;3.80;;
12474;SDS011;6302;42.624;23.334;2022-10-03T13:17:30;3.80;;;3.50;;
12474;SDS011;6302;42.624;23.334;2022-10-03T13:20:05;3.80;;;3.50;;
12474;SDS011;6302;42.624;23.334;2022-10-03T13:22:42;3.73;;;3.47;;
12474;SDS011;6302;42.624;23.334;2022-10-03T13:25:16;4.07;;;3.77;;
12474;SDS011;6302;42.624;23.334;2022-10-03T13:27:48;3.33;;;3.13;;
12474;SDS011;6302;42.624;23.334;2022-10-03T13:30:23;4.30;;;3.67;;
12474;SDS011;6302;42.624;23.334;2022-10-03T13:32:55;3.50;;;3.20;;
12474;SDS011;6302;42.624;23.334;2022-10-03T13:35:34;3.53;;;3.30;;
12474;SDS011;6302;42.624;23.334;2022-10-03T13:41:39;3.87;;;3.57;;
12474;SDS011;6302;42.624;23.334;2022-10-03T13:44:16;3.30;;;3.10;;
12474;SDS011;6302;42.624;23.334;2022-10-03T13:46:47;10.40;;;3.57;;
12474;SDS011;6302;42.624;23.334;2022-10-03T13:49:22;3.40;;;3.20;;
12474;SDS011;6302;42.624;23.334;2022-10-03T13:51:58;3.43;;;3.23;;
12474;SDS011;6302;42.624;23.334;2022-10-03T13:57:36;3.77;;;3.47;;
12474;SDS011;6302;42.624;23.334;2022-10-03T14:00:07;3.93;;;3.30;;
12474;SDS011;6302;42.624;23.334;2022-10-03T14:02:38;3.40;;;3.20;;
12474;SDS011;6302;42.624;23.334;2022-10-03T14:08:12;3.40;;;3.10;;
12474;SDS011;6302;42.624;23.334;2022-10-03T14:10:59;3.53;;;3.30;;
12474;SDS011;6302;42.624;23.334;2022-10-03T14:13:38;3.00;;;2.87;;
12474;SDS011;6302;42.624;23.334;2022-10-03T14:16:17;3.37;;;3.17;;
12474;SDS011;6302;42.624;23.334;2022-10-03T14:18:50;3.23;;;2.47;;
12474;SDS011;6302;42.624;23.334;2022-10-03T14:21:32;2.90;;;2.70;;
12474;SDS011;6302;42.624;23.334;2022-10-03T14:24:13;4.10;;;2.77;;
12474;SDS011;6302;42.624;23.334;2022-10-03T14:26:54;2.83;;;2.63;;
12474;SDS011;6302;42.624;23.334;2022-10-03T14:29:28;3.17;;;2.97;;
12474;SDS011;6302;42.624;23.334;2022-10-03T14:32:02;2.70;;;2.53;;
12474;SDS011;6302;42.624;23.334;2022-10-03T14:34:41;2.63;;;2.43;;
12474;SDS011;6302;42.624;23.334;2022-10-03T14:37:18;3.47;;;2.80;;
12474;SDS011;6302;42.624;23.334;2022-10-03T14:39:57;2.70;;;2.50;;
12474;SDS011;6302;42.624;23.334;2022-10-03T14:42:39;3.20;;;3.00;;
12474;SDS011;6302;42.624;23.334;2022-10-03T14:45:14;2.70;;;2.50;;
12474;SDS011;6302;42.624;23.334;2022-10-03T14:47:46;2.57;;;2.37;;
12474;SDS011;6302;42.624;23.334;2022-10-03T14:50:16;2.70;;;2.50;;
12474;SDS011;6302;42.624;23.334;2022-10-03T14:52:46;3.03;;;2.73;;
12474;SDS011;6302;42.624;23.334;2022-10-03T14:55:22;2.73;;;2.50;;
12474;SDS011;6302;42.624;23.334;2022-10-03T14:57:54;2.50;;;2.27;;
12474;SDS011;6302;42.624;23.334;2022-10-03T15:00:31;2.90;;;2.70;;
12474;SDS011;6302;42.624;23.334;2022-10-03T15:03:17;2.90;;;2.70;;
12474;SDS011;6302;42.624;23.334;2022-10-03T15:05:52;2.87;;;2.67;;
12474;SDS011;6302;42.624;23.334;2022-10-03T15:08:25;4.67;;;4.27;;
12474;SDS011;6302;42.624;23.334;2022-10-03T15:11:00;4.30;;;3.40;;
12474;SDS011;6302;42.624;23.334;2022-10-03T15:13:31;3.33;;;3.07;;
12474;SDS011;6302;42.624;23.334;2022-10-03T15:16:00;3.20;;;3.00;;
12474;SDS011;6302;42.624;23.334;2022-10-03T15:18:28;4.20;;;3.80;;
12474;SDS011;6302;42.624;23.334;2022-10-03T15:20:56;3.50;;;3.30;;
12474;SDS011;6302;42.624;23.334;2022-10-03T15:23:25;2.90;;;2.70;;
12474;SDS011;6302;42.624;23.334;2022-10-03T15:25:57;2.30;;;2.17;;
12474;SDS011;6302;42.624;23.334;2022-10-03T15:28:27;2.00;;;1.90;;
12474;SDS011;6302;42.624;23.334;2022-10-03T15:31:06;4.03;;;2.70;;
12474;SDS011;6302;42.624;23.334;2022-10-03T15:33:37;2.60;;;2.40;;
12474;SDS011;6302;42.624;23.334;2022-10-03T15:36:09;3.67;;;2.60;;
12474;SDS011;6302;42.624;23.334;2022-10-03T15:38:40;3.20;;;2.17;;
12474;SDS011;6302;42.624;23.334;2022-10-03T15:41:10;2.60;;;2.30;;
12474;SDS011;6302;42.624;23.334;2022-10-03T15:43:43;3.20;;;2.90;;
12474;SDS011;6302;42.624;23.334;2022-10-03T15:46:26;2.00;;;1.90;;
12474;SDS011;6302;42.624;23.334;2022-10-03T15:48:59;2.40;;;2.23;;
12474;SDS011;6302;42.624;23.334;2022-10-03T15:51:29;2.40;;;2.20;;
12474;SDS011;6302;42.624;23.334;2022-10-03T15:53:58;1.87;;;1.77;;
12474;SDS011;6302;42.624;23.334;2022-10-03T15:56:28;2.20;;;2.00;;
12474;SDS011;6302;42.624;23.334;2022-10-03T15:59:01;2.53;;;2.33;;
12474;SDS011;6302;42.624;23.334;2022-10-03T16:01:33;2.50;;;2.23;;
12474;SDS011;6302;42.624;23.334;2022-10-03T16:04:04;2.57;;;1.90;;
12474;SDS011;6302;42.624;23.334;2022-10-03T16:06:38;6.60;;;1.87;;
12474;SDS011;6302;42.624;23.334;2022-10-03T16:09:15;1.90;;;1.70;;
12474;SDS011;6302;42.624;23.334;2022-10-03T16:11:51;2.43;;;1.60;;
12474;SDS011;6302;42.624;23.334;2022-10-03T16:14:30;4.70;;;3.37;;
12474;SDS011;6302;42.624;23.334;2022-10-03T16:17:06;2.33;;;2.13;;
12474;SDS011;6302;42.624;23.334;2022-10-03T16:19:41;1.80;;;1.70;;
12474;SDS011;6302;42.624;23.334;2022-10-03T16:22:18;2.13;;;1.93;;
12474;SDS011;6302;42.624;23.334;2022-10-03T16:24:59;2.53;;;1.90;;
12474;SDS011;6302;42.624;23.334;2022-10-03T16:27:30;2.10;;;1.93;;
12474;SDS011;6302;42.624;23.334;2022-10-03T16:30:13;2.20;;;2.00;;
12474;SDS011;6302;42.624;23.334;2022-10-03T16:32:47;3.17;;;2.47;;
12474;SDS011;6302;42.624;23.334;2022-10-03T16:38:05;2.43;;;2.10;;
12474;SDS011;6302;42.624;23.334;2022-10-03T16:40:41;2.30;;;2.10;;
12474;SDS011;6302;42.624;23.334;2022-10-03T16:43:19;2.20;;;2.00;;
12474;SDS011;6302;42.624;23.334;2022-10-03T16:45:50;2.50;;;2.30;;
12474;SDS011;6302;42.624;23.334;2022-10-03T16:48:19;3.60;;;2.47;;
12474;SDS011;6302;42.624;23.334;2022-10-03T16:51:08;2.63;;;2.03;;
12474;SDS011;6302;42.624;23.334;2022-10-03T16:53:43;2.53;;;2.33;;
12474;SDS011;6302;42.624;23.334;2022-10-03T16:56:13;2.27;;;2.07;;
12474;SDS011;6302;42.624;23.334;2022-10-03T16:58:43;2.33;;;2.23;;
12474;SDS011;6302;42.624;23.334;2022-10-03T17:01:22;4.40;;;2.30;;
12474;SDS011;6302;42.624;23.334;2022-10-03T17:03:57;2.30;;;2.10;;
12474;SDS011;6302;42.624;23.334;2022-10-03T17:06:34;4.30;;;3.17;;
12474;SDS011;6302;42.624;23.334;2022-10-03T17:09:06;3.00;;;2.27;;
12474;SDS011;6302;42.624;23.334;2022-10-03T17:11:45;3.33;;;2.97;;
12474;SDS011;6302;42.624;23.334;2022-10-03T17:14:16;4.23;;;3.00;;
12474;SDS011;6302;42.624;23.334;2022-10-03T17:16:48;3.20;;;2.43;;
12474;SDS011;6302;42.624;23.334;2022-10-03T17:19:19;3.00;;;2.70;;
12474;SDS011;6302;42.624;23.334;2022-10-03T17:21:54;3.33;;;3.03;;
12474;SDS011;6302;42.624;23.334;2022-10-03T17:24:27;3.80;;;2.60;;
12474;SDS011;6302;42.624;23.334;2022-10-03T17:27:01;6.97;;;5.20;;
12474;SDS011;6302;42.624;23.334;2022-10-03T17:29:34;2.43;;;2.27;;
12474;SDS011;6302;42.624;23.334;2022-10-03T17:32:10;3.67;;;2.47;;
12474;SDS011;6302;42.624;23.334;2022-10-03T17:34:44;3.67;;;3.27;;
12474;SDS011;6302;42.624;23.334;2022-10-03T17:37:19;3.03;;;2.63;;
12474;SDS011;6302;42.624;23.334;2022-10-03T17:40:02;4.17;;;2.80;;
12474;SDS011;6302;42.624;23.334;2022-10-03T17:42:44;3.10;;;2.90;;
12474;SDS011;6302;42.624;23.334;2022-10-03T17:45:31;3.70;;;2.60;;
12474;SDS011;6302;42.624;23.334;2022-10-03T17:48:10;4.73;;;3.57;;
12474;SDS011;6302;42.624;23.334;2022-10-03T17:50:47;2.83;;;2.63;;
12474;SDS011;6302;42.624;23.334;2022-10-03T17:53:20;3.90;;;3.47;;
12474;SDS011;6302;42.624;23.334;2022-10-03T17:55:53;4.87;;;3.50;;
12474;SDS011;6302;42.624;23.334;2022-10-03T17:58:22;15.73;;;7.80;;
12474;SDS011;6302;42.624;23.334;2022-10-03T18:00:55;13.33;;;8.00;;
12474;SDS011;6302;42.624;23.334;2022-10-03T18:03:31;6.83;;;4.70;;
12474;SDS011;6302;42.624;23.334;2022-10-03T18:06:01;7.87;;;5.40;;
12474;SDS011;6302;42.624;23.334;2022-10-03T18:08:44;8.87;;;4.97;;
12474;SDS011;6302;42.624;23.334;2022-10-03T18:11:14;8.30;;;5.10;;
12474;SDS011;6302;42.624;23.334;2022-10-03T18:13:47;7.90;;;5.20;;
12474;SDS011;6302;42.624;23.334;2022-10-03T18:16:18;6.77;;;4.70;;
12474;SDS011;6302;42.624;23.334;2022-10-03T18:19:09;3.80;;;2.73;;
12474;SDS011;6302;42.624;23.334;2022-10-03T18:21:52;5.10;;;4.10;;
12474;SDS011;6302;42.624;23.334;2022-10-03T18:27:32;7.50;;;4.80;;
12474;SDS011;6302;42.624;23.334;2022-10-03T18:30:13;6.33;;;4.80;;
12474;SDS011;6302;42.624;23.334;2022-10-03T18:32:45;8.13;;;4.30;;
12474;SDS011;6302;42.624;23.334;2022-10-03T18:35:15;6.13;;;3.67;;
12474;SDS011;6302;42.624;23.334;2022-10-03T18:37:53;4.93;;;3.40;;
12474;SDS011;6302;42.624;23.334;2022-10-03T18:40:27;5.87;;;3.17;;
12474;SDS011;6302;42.624;23.334;2022-10-03T18:42:56;2.87;;;2.57;;
12474;SDS011;6302;42.624;23.334;2022-10-03T18:45:27;2.07;;;1.97;;
12474;SDS011;6302;42.624;23.334;2022-10-03T18:47:58;2.50;;;2.10;;
12474;SDS011;6302;42.624;23.334;2022-10-03T18:50:35;3.53;;;2.50;;
12474;SDS011;6302;42.624;23.334;2022-10-03T18:53:15;5.53;;;3.33;;
12474;SDS011;6302;42.624;23.334;2022-10-03T18:55:53;5.73;;;4.63;;
12474;SDS011;6302;42.624;23.334;2022-10-03T18:58:24;2.40;;;2.20;;
12474;SDS011;6302;42.624;23.334;2022-10-03T19:00:56;3.50;;;2.50;;
12474;SDS011;6302;42.624;23.334;2022-10-03T19:03:28;4.07;;;2.63;;
12474;SDS011;6302;42.624;23.334;2022-10-03T19:06:03;2.40;;;1.90;;
12474;SDS011;6302;42.624;23.334;2022-10-03T19:08:33;4.57;;;2.77;;
12474;SDS011;6302;42.624;23.334;2022-10-03T19:11:08;3.37;;;1.90;;
12474;SDS011;6302;42.624;23.334;2022-10-03T19:13:42;2.33;;;2.13;;
12474;SDS011;6302;42.624;23.334;2022-10-03T19:16:17;3.93;;;2.10;;
12474;SDS011;6302;42.624;23.334;2022-10-03T19:19:00;2.80;;;1.83;;
12474;SDS011;6302;42.624;23.334;2022-10-03T19:21:35;4.73;;;2.33;;
12474;SDS011;6302;42.624;23.334;2022-10-03T19:24:05;4.00;;;3.60;;
12474;SDS011;6302;42.624;23.334;2022-10-03T19:26:42;3.60;;;2.20;;
12474;SDS011;6302;42.624;23.334;2022-10-03T19:29:12;4.20;;;2.53;;
12474;SDS011;6302;42.624;23.334;2022-10-03T19:31:43;3.63;;;2.80;;